sensor_id;sensor_type;location;lat;lon;timestamp;P1;durP1;ratioP1;P2;durP2;ratioP2
4500;SDS011;2263;54.654;9.410;2022-11-15T00:01:08;47.80;;;24.23;;
4500;SDS011;2263;54.654;9.410;2022-11-15T00:03:36;44.97;;;25.27;;
4500;SDS011;2263;54.654;9.410;2022-11-15T00:06:03;45.40;;;25.13;;
4500;SDS011;2263;54.654;9.410;2022-11-15T00:08:31;47.57;;;26.03;;
4500;SDS011;2263;54.654;9.410;2022-11-15T00:10:59;49.50;;;25.27;;
4500;SDS011;2263;54.654;9.410;2022-11-15T00:13:28;56.57;;;27.40;;
4500;SDS011;2263;54.654;9.410;2022-11-15T00:15:57;48.67;;;24.80;;
4500;SDS011;2263;54.654;9.410;2022-11-15T00:18:26;47.80;;;25.57;;
4500;SDS011;2263;54.654;9.410;2022-11-15T00:20:53;49.17;;;24.93;;
4500;SDS011;2263;54.654;9.410;2022-11-15T00:23:21;45.60;;;24.67;;
4500;SDS011;2263;54.654;9.410;2022-11-15T00:25:55;48.80;;;26.10;;
4500;SDS011;2263;54.654;9.410;2022-11-15T00:28:24;51.40;;;25.83;;
4500;SDS011;2263;54.654;9.410;2022-11-15T00:30:52;51.53;;;26.20;;
4500;SDS011;2263;54.654;9.410;2022-11-15T00:33:19;48.67;;;26.77;;
4500;SDS011;2263;54.654;9.410;2022-11-15T00:35:46;51.43;;;25.53;;
4500;SDS011;2263;54.654;9.410;2022-11-15T00:38:13;48.60;;;26.77;;
4500;SDS011;2263;54.654;9.410;2022-11-15T00:40:41;49.00;;;25.83;;
4500;SDS011;2263;54.654;9.410;2022-11-15T00:43:08;46.40;;;23.90;;
4500;SDS011;2263;54.654;9.410;2022-11-15T00:45:35;60.70;;;29.80;;
4500;SDS011;2263;54.654;9.410;2022-11-15T00:48:02;61.67;;;26.60;;
4500;SDS011;2263;54.654;9.410;2022-11-15T00:50:29;50.90;;;25.90;;
4500;SDS011;2263;54.654;9.410;2022-11-15T00:52:57;45.10;;;25.27;;
4500;SDS011;2263;54.654;9.410;2022-11-15T00:55:24;48.33;;;27.53;;
4500;SDS011;2263;54.654;9.410;2022-11-15T00:57:51;42.23;;;25.30;;
4500;SDS011;2263;54.654;9.410;2022-11-15T01:00:18;50.30;;;26.00;;
4500;SDS011;2263;54.654;9.410;2022-11-15T01:02:45;52.37;;;26.87;;
4500;SDS011;2263;54.654;9.410;2022-11-15T01:05:12;53.20;;;28.40;;
4500;SDS011;2263;54.654;9.410;2022-11-15T01:07:40;46.33;;;24.20;;
4500;SDS011;2263;54.654;9.410;2022-11-15T01:10:07;52.90;;;28.47;;
4500;SDS011;2263;54.654;9.410;2022-11-15T01:12:34;50.20;;;26.90;;
4500;SDS011;2263;54.654;9.410;2022-11-15T01:15:02;47.83;;;27.77;;
4500;SDS011;2263;54.654;9.410;2022-11-15T01:17:30;51.80;;;27.30;;
4500;SDS011;2263;54.654;9.410;2022-11-15T01:19:57;51.70;;;26.07;;
4500;SDS011;2263;54.654;9.410;2022-11-15T01:22:24;47.47;;;26.90;;
4500;SDS011;2263;54.654;9.410;2022-11-15T01:24:52;49.80;;;27.40;;
4500;SDS011;2263;54.654;9.410;2022-11-15T01:27:19;49.17;;;26.70;;
4500;SDS011;2263;54.654;9.410;2022-11-15T01:29:46;50.70;;;25.93;;
4500;SDS011;2263;54.654;9.410;2022-11-15T01:32:13;52.17;;;29.87;;
4500;SDS011;2263;54.654;9.410;2022-11-15T01:34:40;48.60;;;27.87;;
4500;SDS011;2263;54.654;9.410;2022-11-15T01:37:08;51.80;;;24.10;;
4500;SDS011;2263;54.654;9.410;2022-11-15T01:39:35;53.33;;;28.20;;
4500;SDS011;2263;54.654;9.410;2022-11-15T01:42:02;44.33;;;24.60;;
4500;SDS011;2263;54.654;9.410;2022-11-15T01:44:49;48.43;;;27.00;;
4500;SDS011;2263;54.654;9.410;2022-11-15T01:47:28;47.00;;;25.60;;
4500;SDS011;2263;54.654;9.410;2022-11-15T01:49:59;54.93;;;27.50;;
4500;SDS011;2263;54.654;9.410;2022-11-15T01:52:30;53.13;;;26.43;;
4500;SDS011;2263;54.654;9.410;2022-11-15T01:55:07;55.00;;;25.80;;
4500;SDS011;2263;54.654;9.410;2022-11-15T01:57:46;55.93;;;28.10;;
4500;SDS011;2263;54.654;9.410;2022-11-15T02:00:16;56.50;;;27.60;;
4500;SDS011;2263;54.654;9.410;2022-11-15T02:02:44;53.67;;;26.77;;
4500;SDS011;2263;54.654;9.410;2022-11-15T02:05:11;48.73;;;26.30;;
4500;SDS011;2263;54.654;9.410;2022-11-15T02:07:38;50.97;;;26.50;;
4500;SDS011;2263;54.654;9.410;2022-11-15T02:10:07;48.10;;;27.97;;
4500;SDS011;2263;54.654;9.410;2022-11-15T02:12:37;48.87;;;26.50;;
4500;SDS011;2263;54.654;9.410;2022-11-15T02:15:04;47.10;;;26.57;;
4500;SDS011;2263;54.654;9.410;2022-11-15T02:20:58;53.73;;;26.90;;
4500;SDS011;2263;54.654;9.410;2022-11-15T02:29:03;51.10;;;27.63;;
4500;SDS011;2263;54.654;9.410;2022-11-15T02:37:33;50.37;;;26.20;;
4500;SDS011;2263;54.654;9.410;2022-11-15T02:39:41;52.10;;;27.90;;
4500;SDS011;2263;54.654;9.410;2022-11-15T02:42:15;51.80;;;27.20;;
4500;SDS011;2263;54.654;9.410;2022-11-15T02:45:07;50.83;;;25.10;;
4500;SDS011;2263;54.654;9.410;2022-11-15T02:47:41;51.30;;;26.70;;
4500;SDS011;2263;54.654;9.410;2022-11-15T02:50:12;50.97;;;26.73;;
4500;SDS011;2263;54.654;9.410;2022-11-15T02:52:47;54.43;;;25.60;;
4500;SDS011;2263;54.654;9.410;2022-11-15T02:55:31;48.90;;;27.13;;
4500;SDS011;2263;54.654;9.410;2022-11-15T03:00:52;55.33;;;27.93;;
4500;SDS011;2263;54.654;9.410;2022-11-15T03:06:35;47.30;;;25.77;;
4500;SDS011;2263;54.654;9.410;2022-11-15T03:15:38;53.77;;;26.97;;
4500;SDS011;2263;54.654;9.410;2022-11-15T03:18:10;49.97;;;26.03;;
4500;SDS011;2263;54.654;9.410;2022-11-15T03:20:39;45.73;;;24.50;;
4500;SDS011;2263;54.654;9.410;2022-11-15T03:23:09;45.60;;;23.83;;
4500;SDS011;2263;54.654;9.410;2022-11-15T03:25:38;41.13;;;24.90;;
4500;SDS011;2263;54.654;9.410;2022-11-15T03:28:10;48.07;;;25.50;;
4500;SDS011;2263;54.654;9.410;2022-11-15T03:30:40;50.33;;;26.03;;
4500;SDS011;2263;54.654;9.410;2022-11-15T03:33:09;48.27;;;25.90;;
4500;SDS011;2263;54.654;9.410;2022-11-15T03:35:38;53.53;;;25.27;;
4500;SDS011;2263;54.654;9.410;2022-11-15T03:38:25;40.07;;;23.50;;
4500;SDS011;2263;54.654;9.410;2022-11-15T03:40:59;43.90;;;24.87;;
4500;SDS011;2263;54.654;9.410;2022-11-15T03:43:39;43.03;;;25.53;;
4500;SDS011;2263;54.654;9.410;2022-11-15T03:46:14;52.00;;;26.50;;
4500;SDS011;2263;54.654;9.410;2022-11-15T03:48:47;46.97;;;25.70;;
4500;SDS011;2263;54.654;9.410;2022-11-15T03:51:18;41.97;;;22.90;;
4500;SDS011;2263;54.654;9.410;2022-11-15T03:53:46;45.17;;;23.27;;
4500;SDS011;2263;54.654;9.410;2022-11-15T03:56:13;36.43;;;21.80;;
4500;SDS011;2263;54.654;9.410;2022-11-15T03:58:40;43.67;;;23.90;;
4500;SDS011;2263;54.654;9.410;2022-11-15T04:01:07;51.13;;;25.27;;
4500;SDS011;2263;54.654;9.410;2022-11-15T04:03:35;47.93;;;25.57;;
4500;SDS011;2263;54.654;9.410;2022-11-15T04:06:02;43.70;;;24.20;;
4500;SDS011;2263;54.654;9.410;2022-11-15T04:08:29;46.47;;;26.43;;
4500;SDS011;2263;54.654;9.410;2022-11-15T04:10:56;48.40;;;24.50;;
4500;SDS011;2263;54.654;9.410;2022-11-15T04:13:24;47.10;;;25.63;;
4500;SDS011;2263;54.654;9.410;2022-11-15T04:15:51;39.07;;;23.10;;
4500;SDS011;2263;54.654;9.410;2022-11-15T04:18:18;45.70;;;25.03;;
4500;SDS011;2263;54.654;9.410;2022-11-15T04:20:45;43.53;;;24.30;;
4500;SDS011;2263;54.654;9.410;2022-11-15T04:23:31;41.00;;;24.87;;
4500;SDS011;2263;54.654;9.410;2022-11-15T04:26:33;42.77;;;23.03;;
4500;SDS011;2263;54.654;9.410;2022-11-15T04:29:00;43.00;;;23.50;;
4500;SDS011;2263;54.654;9.410;2022-11-15T04:31:46;43.50;;;24.37;;
4500;SDS011;2263;54.654;9.410;2022-11-15T04:34:13;44.13;;;24.07;;
4500;SDS011;2263;54.654;9.410;2022-11-15T04:36:40;43.67;;;24.80;;
4500;SDS011;2263;54.654;9.410;2022-11-15T04:39:26;42.87;;;25.20;;
4500;SDS011;2263;54.654;9.410;2022-11-15T04:41:53;44.40;;;25.20;;
4500;SDS011;2263;54.654;9.410;2022-11-15T04:44:20;44.90;;;24.23;;
4500;SDS011;2263;54.654;9.410;2022-11-15T04:46:47;45.07;;;25.33;;
4500;SDS011;2263;54.654;9.410;2022-11-15T04:49:14;43.00;;;24.47;;
4500;SDS011;2263;54.654;9.410;2022-11-15T04:51:41;42.30;;;22.93;;
4500;SDS011;2263;54.654;9.410;2022-11-15T04:54:08;44.67;;;24.37;;
4500;SDS011;2263;54.654;9.410;2022-11-15T04:56:35;43.77;;;24.90;;
4500;SDS011;2263;54.654;9.410;2022-11-15T04:59:03;41.43;;;22.70;;
4500;SDS011;2263;54.654;9.410;2022-11-15T05:01:30;45.80;;;23.50;;
4500;SDS011;2263;54.654;9.410;2022-11-15T05:03:57;44.40;;;26.70;;
4500;SDS011;2263;54.654;9.410;2022-11-15T05:06:43;45.23;;;23.20;;
4500;SDS011;2263;54.654;9.410;2022-11-15T05:09:10;40.30;;;25.73;;
4500;SDS011;2263;54.654;9.410;2022-11-15T05:11:39;47.90;;;27.17;;
4500;SDS011;2263;54.654;9.410;2022-11-15T05:14:07;46.67;;;24.03;;
4500;SDS011;2263;54.654;9.410;2022-11-15T05:16:34;43.43;;;24.27;;
4500;SDS011;2263;54.654;9.410;2022-11-15T05:19:02;46.53;;;24.00;;
4500;SDS011;2263;54.654;9.410;2022-11-15T05:21:29;41.60;;;22.00;;
4500;SDS011;2263;54.654;9.410;2022-11-15T05:23:57;40.43;;;24.63;;
4500;SDS011;2263;54.654;9.410;2022-11-15T05:26:25;45.67;;;24.90;;
4500;SDS011;2263;54.654;9.410;2022-11-15T05:28:53;43.20;;;23.67;;
4500;SDS011;2263;54.654;9.410;2022-11-15T05:31:21;44.47;;;23.13;;
4500;SDS011;2263;54.654;9.410;2022-11-15T05:33:49;45.70;;;25.50;;
4500;SDS011;2263;54.654;9.410;2022-11-15T05:36:24;41.40;;;22.13;;
4500;SDS011;2263;54.654;9.410;2022-11-15T05:39:01;39.13;;;24.53;;
4500;SDS011;2263;54.654;9.410;2022-11-15T05:41:51;38.40;;;22.93;;
4500;SDS011;2263;54.654;9.410;2022-11-15T05:44:20;40.13;;;22.87;;
4500;SDS011;2263;54.654;9.410;2022-11-15T05:46:49;38.13;;;22.53;;
4500;SDS011;2263;54.654;9.410;2022-11-15T05:49:20;39.80;;;22.83;;
4500;SDS011;2263;54.654;9.410;2022-11-15T05:51:50;38.37;;;23.50;;
4500;SDS011;2263;54.654;9.410;2022-11-15T05:54:19;39.07;;;23.50;;
4500;SDS011;2263;54.654;9.410;2022-11-15T05:56:49;38.13;;;21.77;;
4500;SDS011;2263;54.654;9.410;2022-11-15T05:59:17;44.10;;;24.33;;
4500;SDS011;2263;54.654;9.410;2022-11-15T06:01:45;37.37;;;22.57;;
4500;SDS011;2263;54.654;9.410;2022-11-15T06:04:12;36.30;;;22.10;;
4500;SDS011;2263;54.654;9.410;2022-11-15T06:06:40;36.30;;;24.10;;
4500;SDS011;2263;54.654;9.410;2022-11-15T06:09:07;46.47;;;22.93;;
4500;SDS011;2263;54.654;9.410;2022-11-15T06:11:34;43.30;;;22.10;;
4500;SDS011;2263;54.654;9.410;2022-11-15T06:14:01;34.90;;;20.33;;
4500;SDS011;2263;54.654;9.410;2022-11-15T06:16:28;41.40;;;23.40;;
4500;SDS011;2263;54.654;9.410;2022-11-15T06:18:56;41.13;;;21.30;;
4500;SDS011;2263;54.654;9.410;2022-11-15T06:21:23;35.47;;;21.53;;
4500;SDS011;2263;54.654;9.410;2022-11-15T06:23:50;40.80;;;24.47;;
4500;SDS011;2263;54.654;9.410;2022-11-15T06:26:17;36.37;;;21.20;;
4500;SDS011;2263;54.654;9.410;2022-11-15T06:28:44;33.60;;;20.80;;
4500;SDS011;2263;54.654;9.410;2022-11-15T06:31:11;33.30;;;19.57;;
4500;SDS011;2263;54.654;9.410;2022-11-15T06:33:39;37.37;;;21.20;;
4500;SDS011;2263;54.654;9.410;2022-11-15T06:36:10;36.67;;;20.90;;
4500;SDS011;2263;54.654;9.410;2022-11-15T06:38:44;34.93;;;21.70;;
4500;SDS011;2263;54.654;9.410;2022-11-15T06:41:11;42.60;;;22.17;;
4500;SDS011;2263;54.654;9.410;2022-11-15T06:43:39;42.80;;;24.33;;
4500;SDS011;2263;54.654;9.410;2022-11-15T06:46:07;39.63;;;22.27;;
4500;SDS011;2263;54.654;9.410;2022-11-15T06:48:35;34.40;;;21.00;;
4500;SDS011;2263;54.654;9.410;2022-11-15T06:51:05;31.93;;;19.37;;
4500;SDS011;2263;54.654;9.410;2022-11-15T06:53:33;30.27;;;19.20;;
4500;SDS011;2263;54.654;9.410;2022-11-15T06:56:01;33.67;;;20.77;;
4500;SDS011;2263;54.654;9.410;2022-11-15T06:58:30;36.27;;;21.80;;
4500;SDS011;2263;54.654;9.410;2022-11-15T07:01:00;36.70;;;21.73;;
4500;SDS011;2263;54.654;9.410;2022-11-15T07:03:36;33.67;;;20.40;;
4500;SDS011;2263;54.654;9.410;2022-11-15T07:06:07;33.73;;;19.27;;
4500;SDS011;2263;54.654;9.410;2022-11-15T07:08:35;35.20;;;21.23;;
4500;SDS011;2263;54.654;9.410;2022-11-15T07:11:03;42.00;;;21.33;;
4500;SDS011;2263;54.654;9.410;2022-11-15T07:13:32;34.83;;;21.20;;
4500;SDS011;2263;54.654;9.410;2022-11-15T07:16:05;36.87;;;21.33;;
4500;SDS011;2263;54.654;9.410;2022-11-15T07:18:34;36.27;;;20.47;;
4500;SDS011;2263;54.654;9.410;2022-11-15T07:21:06;28.07;;;17.87;;
4500;SDS011;2263;54.654;9.410;2022-11-15T07:23:36;41.97;;;21.63;;
4500;SDS011;2263;54.654;9.410;2022-11-15T07:26:05;39.90;;;20.67;;
4500;SDS011;2263;54.654;9.410;2022-11-15T07:28:33;36.93;;;22.10;;
4500;SDS011;2263;54.654;9.410;2022-11-15T07:31:02;31.00;;;20.30;;
4500;SDS011;2263;54.654;9.410;2022-11-15T07:33:31;38.63;;;21.00;;
4500;SDS011;2263;54.654;9.410;2022-11-15T07:36:02;34.80;;;20.00;;
4500;SDS011;2263;54.654;9.410;2022-11-15T07:38:32;37.47;;;21.60;;
4500;SDS011;2263;54.654;9.410;2022-11-15T07:41:08;31.83;;;18.83;;
4500;SDS011;2263;54.654;9.410;2022-11-15T07:43:35;34.50;;;19.60;;
4500;SDS011;2263;54.654;9.410;2022-11-15T07:46:06;33.47;;;20.30;;
4500;SDS011;2263;54.654;9.410;2022-11-15T07:48:36;34.57;;;20.30;;
4500;SDS011;2263;54.654;9.410;2022-11-15T07:51:14;31.53;;;20.07;;
4500;SDS011;2263;54.654;9.410;2022-11-15T07:53:45;39.77;;;20.83;;
4500;SDS011;2263;54.654;9.410;2022-11-15T07:56:13;36.30;;;20.20;;
4500;SDS011;2263;54.654;9.410;2022-11-15T07:58:40;34.17;;;18.87;;
4500;SDS011;2263;54.654;9.410;2022-11-15T08:01:08;37.50;;;21.37;;
4500;SDS011;2263;54.654;9.410;2022-11-15T08:03:36;32.37;;;19.10;;
4500;SDS011;2263;54.654;9.410;2022-11-15T08:06:04;37.47;;;22.43;;
4500;SDS011;2263;54.654;9.410;2022-11-15T08:08:31;31.40;;;20.70;;
4500;SDS011;2263;54.654;9.410;2022-11-15T08:10:58;34.37;;;19.70;;
4500;SDS011;2263;54.654;9.410;2022-11-15T08:13:26;32.07;;;20.13;;
4500;SDS011;2263;54.654;9.410;2022-11-15T08:15:57;34.90;;;19.93;;
4500;SDS011;2263;54.654;9.410;2022-11-15T08:18:29;33.30;;;20.67;;
4500;SDS011;2263;54.654;9.410;2022-11-15T08:20:59;32.10;;;20.37;;
4500;SDS011;2263;54.654;9.410;2022-11-15T08:23:27;35.03;;;20.33;;
4500;SDS011;2263;54.654;9.410;2022-11-15T08:25:59;34.67;;;21.53;;
4500;SDS011;2263;54.654;9.410;2022-11-15T08:28:29;38.40;;;21.07;;
4500;SDS011;2263;54.654;9.410;2022-11-15T08:30:56;39.20;;;22.80;;
4500;SDS011;2263;54.654;9.410;2022-11-15T08:33:24;36.27;;;22.27;;
4500;SDS011;2263;54.654;9.410;2022-11-15T08:35:51;39.87;;;21.17;;
4500;SDS011;2263;54.654;9.410;2022-11-15T08:38:18;35.97;;;21.00;;
4500;SDS011;2263;54.654;9.410;2022-11-15T08:40:45;32.23;;;19.43;;
4500;SDS011;2263;54.654;9.410;2022-11-15T08:43:12;31.80;;;20.13;;
4500;SDS011;2263;54.654;9.410;2022-11-15T08:45:39;39.20;;;22.60;;
4500;SDS011;2263;54.654;9.410;2022-11-15T08:48:06;40.07;;;21.00;;
4500;SDS011;2263;54.654;9.410;2022-11-15T08:50:34;47.03;;;22.50;;
4500;SDS011;2263;54.654;9.410;2022-11-15T08:53:04;36.33;;;21.70;;
4500;SDS011;2263;54.654;9.410;2022-11-15T08:55:38;33.33;;;20.70;;
4500;SDS011;2263;54.654;9.410;2022-11-15T08:58:06;42.30;;;21.87;;
4500;SDS011;2263;54.654;9.410;2022-11-15T09:00:33;40.63;;;21.90;;
4500;SDS011;2263;54.654;9.410;2022-11-15T09:03:03;36.43;;;21.47;;
4500;SDS011;2263;54.654;9.410;2022-11-15T09:05:31;41.87;;;23.50;;
4500;SDS011;2263;54.654;9.410;2022-11-15T09:07:58;40.37;;;21.87;;
4500;SDS011;2263;54.654;9.410;2022-11-15T09:10:27;41.03;;;21.17;;
4500;SDS011;2263;54.654;9.410;2022-11-15T09:12:56;40.43;;;21.80;;
4500;SDS011;2263;54.654;9.410;2022-11-15T09:15:24;40.63;;;21.40;;
4500;SDS011;2263;54.654;9.410;2022-11-15T09:17:51;36.83;;;21.67;;
4500;SDS011;2263;54.654;9.410;2022-11-15T09:20:18;38.87;;;21.10;;
4500;SDS011;2263;54.654;9.410;2022-11-15T09:22:45;33.90;;;21.83;;
4500;SDS011;2263;54.654;9.410;2022-11-15T09:25:12;33.17;;;19.77;;
4500;SDS011;2263;54.654;9.410;2022-11-15T09:27:39;34.27;;;21.20;;
4500;SDS011;2263;54.654;9.410;2022-11-15T09:30:24;33.87;;;21.57;;
4500;SDS011;2263;54.654;9.410;2022-11-15T09:32:52;41.40;;;22.37;;
4500;SDS011;2263;54.654;9.410;2022-11-15T09:35:19;45.30;;;22.57;;
4500;SDS011;2263;54.654;9.410;2022-11-15T09:37:46;33.43;;;20.47;;
4500;SDS011;2263;54.654;9.410;2022-11-15T09:40:20;35.23;;;20.67;;
4500;SDS011;2263;54.654;9.410;2022-11-15T09:42:56;36.17;;;19.80;;
4500;SDS011;2263;54.654;9.410;2022-11-15T09:45:47;34.50;;;20.77;;
4500;SDS011;2263;54.654;9.410;2022-11-15T09:50:48;34.23;;;20.47;;
4500;SDS011;2263;54.654;9.410;2022-11-15T09:56:40;35.50;;;19.60;;
4500;SDS011;2263;54.654;9.410;2022-11-15T10:01:58;35.37;;;20.53;;
4500;SDS011;2263;54.654;9.410;2022-11-15T10:04:39;40.53;;;20.97;;
4500;SDS011;2263;54.654;9.410;2022-11-15T10:07:13;29.97;;;18.67;;
4500;SDS011;2263;54.654;9.410;2022-11-15T10:12:38;32.90;;;21.03;;
4500;SDS011;2263;54.654;9.410;2022-11-15T10:15:11;35.37;;;18.67;;
4500;SDS011;2263;54.654;9.410;2022-11-15T10:18:29;34.10;;;19.70;;
4500;SDS011;2263;54.654;9.410;2022-11-15T10:20:32;37.90;;;18.47;;
4500;SDS011;2263;54.654;9.410;2022-11-15T10:23:22;30.47;;;18.17;;
4500;SDS011;2263;54.654;9.410;2022-11-15T10:25:51;39.80;;;22.77;;
4500;SDS011;2263;54.654;9.410;2022-11-15T10:28:32;28.40;;;16.90;;
4500;SDS011;2263;54.654;9.410;2022-11-15T10:31:00;25.67;;;18.40;;
4500;SDS011;2263;54.654;9.410;2022-11-15T10:33:37;29.40;;;18.97;;
4500;SDS011;2263;54.654;9.410;2022-11-15T10:41:16;32.37;;;19.87;;
4500;SDS011;2263;54.654;9.410;2022-11-15T10:46:34;30.93;;;18.17;;
4500;SDS011;2263;54.654;9.410;2022-11-15T10:51:54;30.90;;;19.33;;
4500;SDS011;2263;54.654;9.410;2022-11-15T10:54:39;32.63;;;20.70;;
4500;SDS011;2263;54.654;9.410;2022-11-15T10:57:18;32.67;;;18.90;;
4500;SDS011;2263;54.654;9.410;2022-11-15T10:59:54;34.20;;;19.33;;
4500;SDS011;2263;54.654;9.410;2022-11-15T11:10:56;32.40;;;19.07;;
4500;SDS011;2263;54.654;9.410;2022-11-15T11:13:30;34.50;;;19.10;;
4500;SDS011;2263;54.654;9.410;2022-11-15T11:22:00;29.90;;;17.27;;
4500;SDS011;2263;54.654;9.410;2022-11-15T11:27:30;33.53;;;19.43;;
4500;SDS011;2263;54.654;9.410;2022-11-15T11:32:49;32.23;;;19.50;;
4500;SDS011;2263;54.654;9.410;2022-11-15T11:38:19;31.17;;;18.90;;
4500;SDS011;2263;54.654;9.410;2022-11-15T11:48:53;28.37;;;18.13;;
4500;SDS011;2263;54.654;9.410;2022-11-15T11:51:30;30.17;;;19.73;;
4500;SDS011;2263;54.654;9.410;2022-11-15T11:54:14;28.30;;;18.27;;
4500;SDS011;2263;54.654;9.410;2022-11-15T11:56:48;31.97;;;19.50;;
4500;SDS011;2263;54.654;9.410;2022-11-15T11:59:28;28.57;;;19.70;;
4500;SDS011;2263;54.654;9.410;2022-11-15T12:02:25;32.23;;;19.47;;
4500;SDS011;2263;54.654;9.410;2022-11-15T12:05:04;36.10;;;20.47;;
4500;SDS011;2263;54.654;9.410;2022-11-15T12:07:49;29.80;;;18.30;;
4500;SDS011;2263;54.654;9.410;2022-11-15T12:10:23;29.33;;;19.30;;
4500;SDS011;2263;54.654;9.410;2022-11-15T12:13:00;43.13;;;19.00;;
4500;SDS011;2263;54.654;9.410;2022-11-15T12:15:35;33.97;;;19.60;;
4500;SDS011;2263;54.654;9.410;2022-11-15T12:18:08;32.57;;;18.90;;
4500;SDS011;2263;54.654;9.410;2022-11-15T12:20:41;30.30;;;17.53;;
4500;SDS011;2263;54.654;9.410;2022-11-15T12:23:23;33.53;;;22.23;;
4500;SDS011;2263;54.654;9.410;2022-11-15T12:31:21;29.83;;;18.43;;
4500;SDS011;2263;54.654;9.410;2022-11-15T12:33:58;31.50;;;18.23;;
4500;SDS011;2263;54.654;9.410;2022-11-15T12:39:12;32.10;;;20.57;;
4500;SDS011;2263;54.654;9.410;2022-11-15T13:02:40;38.07;;;18.73;;
4500;SDS011;2263;54.654;9.410;2022-11-15T13:17:43;26.43;;;18.00;;
4500;SDS011;2263;54.654;9.410;2022-11-15T13:22:43;28.80;;;17.57;;
4500;SDS011;2263;54.654;9.410;2022-11-15T13:27:52;27.27;;;19.00;;
4500;SDS011;2263;54.654;9.410;2022-11-15T13:30:29;31.67;;;19.40;;
4500;SDS011;2263;54.654;9.410;2022-11-15T13:32:58;27.03;;;18.20;;
4500;SDS011;2263;54.654;9.410;2022-11-15T13:35:35;24.33;;;16.33;;
4500;SDS011;2263;54.654;9.410;2022-11-15T13:38:05;31.33;;;18.30;;
4500;SDS011;2263;54.654;9.410;2022-11-15T13:40:44;29.23;;;18.70;;
4500;SDS011;2263;54.654;9.410;2022-11-15T13:48:42;37.27;;;20.53;;
4500;SDS011;2263;54.654;9.410;2022-11-15T13:51:22;36.27;;;22.70;;
4500;SDS011;2263;54.654;9.410;2022-11-15T13:53:54;34.70;;;19.13;;
4500;SDS011;2263;54.654;9.410;2022-11-15T13:56:29;31.50;;;19.90;;
4500;SDS011;2263;54.654;9.410;2022-11-15T13:58:58;37.60;;;20.03;;
4500;SDS011;2263;54.654;9.410;2022-11-15T14:01:26;30.20;;;19.40;;
4500;SDS011;2263;54.654;9.410;2022-11-15T14:03:58;30.67;;;17.83;;
4500;SDS011;2263;54.654;9.410;2022-11-15T14:06:27;28.57;;;19.07;;
4500;SDS011;2263;54.654;9.410;2022-11-15T14:11:30;26.23;;;18.20;;
4500;SDS011;2263;54.654;9.410;2022-11-15T14:14:19;28.50;;;18.90;;
4500;SDS011;2263;54.654;9.410;2022-11-15T14:16:48;31.57;;;18.60;;
4500;SDS011;2263;54.654;9.410;2022-11-15T14:25:53;43.60;;;26.40;;
4500;SDS011;2263;54.654;9.410;2022-11-15T14:30:52;46.20;;;25.10;;
4500;SDS011;2263;54.654;9.410;2022-11-15T14:33:22;32.60;;;21.20;;
4500;SDS011;2263;54.654;9.410;2022-11-15T14:38:32;31.83;;;20.20;;
4500;SDS011;2263;54.654;9.410;2022-11-15T14:40:59;30.20;;;20.40;;
4500;SDS011;2263;54.654;9.410;2022-11-15T14:43:27;34.23;;;21.47;;
4500;SDS011;2263;54.654;9.410;2022-11-15T14:45:54;31.23;;;20.53;;
4500;SDS011;2263;54.654;9.410;2022-11-15T14:48:21;33.60;;;22.87;;
4500;SDS011;2263;54.654;9.410;2022-11-15T14:50:49;32.10;;;20.60;;
4500;SDS011;2263;54.654;9.410;2022-11-15T14:53:16;36.07;;;24.33;;
4500;SDS011;2263;54.654;9.410;2022-11-15T14:55:45;37.23;;;22.90;;
4500;SDS011;2263;54.654;9.410;2022-11-15T14:58:12;31.60;;;21.37;;
4500;SDS011;2263;54.654;9.410;2022-11-15T15:00:40;39.10;;;21.53;;
4500;SDS011;2263;54.654;9.410;2022-11-15T15:03:07;32.43;;;19.13;;
4500;SDS011;2263;54.654;9.410;2022-11-15T15:08:07;34.03;;;20.83;;
4500;SDS011;2263;54.654;9.410;2022-11-15T15:10:36;30.07;;;19.93;;
4500;SDS011;2263;54.654;9.410;2022-11-15T15:13:10;30.93;;;21.07;;
4500;SDS011;2263;54.654;9.410;2022-11-15T15:15:46;30.03;;;20.00;;
4500;SDS011;2263;54.654;9.410;2022-11-15T15:18:14;27.80;;;19.23;;
4500;SDS011;2263;54.654;9.410;2022-11-15T15:20:42;40.50;;;28.07;;
4500;SDS011;2263;54.654;9.410;2022-11-15T15:23:16;37.70;;;22.73;;
4500;SDS011;2263;54.654;9.410;2022-11-15T15:25:45;33.60;;;20.90;;
4500;SDS011;2263;54.654;9.410;2022-11-15T15:28:14;30.73;;;20.93;;
4500;SDS011;2263;54.654;9.410;2022-11-15T15:30:42;35.70;;;19.30;;
4500;SDS011;2263;54.654;9.410;2022-11-15T15:33:09;29.93;;;18.60;;
4500;SDS011;2263;54.654;9.410;2022-11-15T15:35:36;29.17;;;20.00;;
4500;SDS011;2263;54.654;9.410;2022-11-15T15:38:04;28.83;;;19.40;;
4500;SDS011;2263;54.654;9.410;2022-11-15T15:40:32;30.17;;;19.53;;
4500;SDS011;2263;54.654;9.410;2022-11-15T15:42:59;26.03;;;18.60;;
4500;SDS011;2263;54.654;9.410;2022-11-15T15:45:27;28.87;;;18.50;;
4500;SDS011;2263;54.654;9.410;2022-11-15T15:47:54;31.00;;;19.10;;
4500;SDS011;2263;54.654;9.410;2022-11-15T15:52:50;24.60;;;16.47;;
4500;SDS011;2263;54.654;9.410;2022-11-15T15:55:18;37.43;;;20.23;;
4500;SDS011;2263;54.654;9.410;2022-11-15T15:57:46;27.90;;;18.63;;
4500;SDS011;2263;54.654;9.410;2022-11-15T16:00:14;24.70;;;16.47;;
4500;SDS011;2263;54.654;9.410;2022-11-15T16:02:42;27.90;;;16.97;;
4500;SDS011;2263;54.654;9.410;2022-11-15T16:05:10;32.83;;;20.43;;
4500;SDS011;2263;54.654;9.410;2022-11-15T16:07:38;27.33;;;16.80;;
4500;SDS011;2263;54.654;9.410;2022-11-15T16:10:49;32.23;;;18.60;;
4500;SDS011;2263;54.654;9.410;2022-11-15T16:13:00;32.17;;;20.60;;
4500;SDS011;2263;54.654;9.410;2022-11-15T16:15:29;29.50;;;18.00;;
4500;SDS011;2263;54.654;9.410;2022-11-15T16:17:58;27.30;;;19.30;;
4500;SDS011;2263;54.654;9.410;2022-11-15T16:23:03;27.00;;;18.60;;
4500;SDS011;2263;54.654;9.410;2022-11-15T16:31:05;30.07;;;17.70;;
4500;SDS011;2263;54.654;9.410;2022-11-15T16:33:35;26.97;;;19.43;;
4500;SDS011;2263;54.654;9.410;2022-11-15T16:36:06;30.97;;;20.13;;
4500;SDS011;2263;54.654;9.410;2022-11-15T16:38:52;27.30;;;17.90;;
4500;SDS011;2263;54.654;9.410;2022-11-15T16:41:19;32.93;;;19.40;;
4500;SDS011;2263;54.654;9.410;2022-11-15T16:43:47;31.97;;;20.53;;
4500;SDS011;2263;54.654;9.410;2022-11-15T16:48:46;33.17;;;20.03;;
4500;SDS011;2263;54.654;9.410;2022-11-15T16:51:14;30.90;;;19.10;;
4500;SDS011;2263;54.654;9.410;2022-11-15T16:53:43;35.83;;;21.20;;
4500;SDS011;2263;54.654;9.410;2022-11-15T16:56:23;32.80;;;20.17;;
4500;SDS011;2263;54.654;9.410;2022-11-15T16:58:53;37.57;;;22.50;;
4500;SDS011;2263;54.654;9.410;2022-11-15T17:01:25;29.00;;;18.20;;
4500;SDS011;2263;54.654;9.410;2022-11-15T17:03:54;38.40;;;18.77;;
4500;SDS011;2263;54.654;9.410;2022-11-15T17:06:22;28.90;;;18.30;;
4500;SDS011;2263;54.654;9.410;2022-11-15T17:08:50;35.20;;;18.73;;
4500;SDS011;2263;54.654;9.410;2022-11-15T17:11:20;27.90;;;18.57;;
4500;SDS011;2263;54.654;9.410;2022-11-15T17:13:48;28.90;;;18.90;;
4500;SDS011;2263;54.654;9.410;2022-11-15T17:16:16;27.10;;;18.23;;
4500;SDS011;2263;54.654;9.410;2022-11-15T17:18:44;27.90;;;19.73;;
4500;SDS011;2263;54.654;9.410;2022-11-15T17:21:16;30.53;;;17.13;;
4500;SDS011;2263;54.654;9.410;2022-11-15T17:23:46;30.17;;;18.53;;
4500;SDS011;2263;54.654;9.410;2022-11-15T17:26:13;26.90;;;18.70;;
4500;SDS011;2263;54.654;9.410;2022-11-15T17:29:01;28.90;;;18.87;;
4500;SDS011;2263;54.654;9.410;2022-11-15T17:31:29;27.47;;;19.00;;
4500;SDS011;2263;54.654;9.410;2022-11-15T17:33:59;27.87;;;17.90;;
4500;SDS011;2263;54.654;9.410;2022-11-15T17:36:28;28.30;;;18.43;;
4500;SDS011;2263;54.654;9.410;2022-11-15T17:38:55;23.10;;;15.87;;
4500;SDS011;2263;54.654;9.410;2022-11-15T17:41:25;30.90;;;18.10;;
4500;SDS011;2263;54.654;9.410;2022-11-15T17:43:56;27.57;;;18.63;;
4500;SDS011;2263;54.654;9.410;2022-11-15T17:46:26;23.10;;;16.90;;
4500;SDS011;2263;54.654;9.410;2022-11-15T17:48:54;26.40;;;18.30;;
4500;SDS011;2263;54.654;9.410;2022-11-15T17:51:22;23.63;;;16.80;;